Flugplatz Uetersen/Heist

METAR ETMN TAF ETMN
1 °C
°C
-
°C
1h
Leeftijd
12:22:31
LT
11:22
UTC
0 ft

1.000

2.000

3.000

4.000

5.000

FEW 500
VFR
<?= Yii::t('app', 'Wind direction') ?> <?= Yii::t('app', 'of'); ?>
190°
17:18
Zonsondergang
87%
Luchtvochtigheid
Windschering
Gesloten/sneeuw
Baanzicht
Baanconditie
Verticaal zicht
Min. zicht
CAVOK
Trend
Correctie
Speciaal rapport
1041 hPa
QNH
METAR ETMN 071020Z 19005KT 9999 FEW005 01/M01 Q1041 BLU+BLU+
Licht bewolkt
5 kt
5 kt
12:00
VFR
5 kt
13:00
VFR
5 kt
14:00
VFR
5 kt
15:00
VFR
5 kt
16:00
VFR
5 kt
17:00
VFR
5 kt
18:00
VFR
5 kt
10 km+
Zicht
Geen
Plafond
5 kt
Wind
metar-taf.com/EDHE

Metar-Taf.com

Visuele decoder

Wij en derden volgen je internetgedrag op onze website met cookies. Als je doorgaat, gaan we ervan uit dat je akkoord gaat met onze cookiebeleid.